createdAt,value
2022-12-03T16:10:44.229Z,9.00
2022-12-03T16:11:44.147Z,15.10
2022-12-03T16:12:44.088Z,16.50
2022-12-03T16:13:44.030Z,17.70
2022-12-03T16:14:43.977Z,18.20
2022-12-03T16:15:43.958Z,17.20
2022-12-03T16:16:43.871Z,17.90
2022-12-03T16:17:43.817Z,17.70
2022-12-03T16:18:43.765Z,19.10
2022-12-03T16:19:43.715Z,18.60
2022-12-03T16:20:43.662Z,16.80
2022-12-03T16:21:43.610Z,18.00
2022-12-03T16:22:43.559Z,19.20
2022-12-03T16:23:43.520Z,16.80
2022-12-03T16:24:43.522Z,18.20
2022-12-03T16:25:43.409Z,18.10
2022-12-03T16:26:43.522Z,17.80
2022-12-03T16:27:43.313Z,17.30
2022-12-03T16:28:43.257Z,17.30
2022-12-03T16:29:43.279Z,17.50
2022-12-03T16:30:43.213Z,17.40
2022-12-03T16:31:43.237Z,17.50
2022-12-03T16:32:43.062Z,18.00
2022-12-03T16:33:43.013Z,18.30
2022-12-03T16:34:42.958Z,17.50
2022-12-03T16:35:42.916Z,18.30
2022-12-03T16:36:43.181Z,18.10
2022-12-03T16:37:42.813Z,17.30
2022-12-03T16:38:42.759Z,18.10
2022-12-03T16:39:42.711Z,17.00
2022-12-03T16:40:42.661Z,17.80
2022-12-03T16:41:42.628Z,16.90
2022-12-03T16:42:42.587Z,18.50
2022-12-03T16:43:42.548Z,16.40
2022-12-03T16:44:42.494Z,16.40
2022-12-03T16:45:42.754Z,16.90
2022-12-03T16:46:42.464Z,17.80
2022-12-03T16:47:42.349Z,17.50
2022-12-03T16:49:42.235Z,17.90
2022-12-03T16:50:42.200Z,17.30
2022-12-03T16:51:42.138Z,17.00
2022-12-03T16:52:42.076Z,17.80
2022-12-03T16:53:42.028Z,17.40
2022-12-03T16:54:42.004Z,17.30
2022-12-03T16:55:41.930Z,17.60
2022-12-03T16:56:41.903Z,17.60
2022-12-03T16:57:41.831Z,18.10
2022-12-03T16:58:41.832Z,18.00
2022-12-03T16:59:41.733Z,18.60
2022-12-03T17:00:41.688Z,17.50
2022-12-03T17:01:41.741Z,18.30
2022-12-03T17:02:41.699Z,17.20
2022-12-03T17:03:41.556Z,18.60
2022-12-03T17:04:41.510Z,17.10
2022-12-03T17:05:41.442Z,18.20
2022-12-03T17:06:41.419Z,17.40
2022-12-03T17:07:41.417Z,17.30
2022-12-03T17:08:47.370Z,16.50
2022-12-03T17:09:41.269Z,17.00
2022-12-03T17:10:41.289Z,17.50
2022-12-03T17:11:41.177Z,17.60
2022-12-03T17:13:08.384Z,17.10
2022-12-03T17:13:41.051Z,17.30
2022-12-03T17:14:41.025Z,16.60
2022-12-03T17:15:41.054Z,16.80
2022-12-03T17:16:41.230Z,17.20
2022-12-03T17:17:40.879Z,16.60
2022-12-03T17:18:40.832Z,16.40
2022-12-03T17:19:40.776Z,17.80
2022-12-03T17:20:40.714Z,17.60
2022-12-03T17:21:40.689Z,17.40
2022-12-03T17:22:40.647Z,16.60
2022-12-03T17:23:40.566Z,18.50
2022-12-03T17:24:40.515Z,17.70
2022-12-03T17:25:40.484Z,16.50
2022-12-03T17:26:40.418Z,17.40
2022-12-03T17:27:45.084Z,17.50
2022-12-03T17:28:40.326Z,17.00
2022-12-03T17:29:40.276Z,16.90
2022-12-03T17:30:40.259Z,16.80
2022-12-03T17:31:42.577Z,16.50
2022-12-03T17:32:40.130Z,16.50
2022-12-03T17:33:40.080Z,16.80
2022-12-03T17:34:40.046Z,17.20
2022-12-03T17:35:39.984Z,16.50
2022-12-03T17:36:39.934Z,16.70
2022-12-03T17:37:39.883Z,16.10
2022-12-03T17:38:39.838Z,16.90
2022-12-03T17:39:39.789Z,16.70
2022-12-03T17:40:39.737Z,15.90
2022-12-03T17:41:39.687Z,16.70
2022-12-03T17:42:39.649Z,16.80
2022-12-03T17:43:39.601Z,16.90
2022-12-03T17:44:39.551Z,16.40
2022-12-03T17:45:39.494Z,16.20
2022-12-03T17:46:39.631Z,16.10
2022-12-03T17:47:39.393Z,16.60
2022-12-03T17:48:39.348Z,15.90
2022-12-03T17:49:39.295Z,16.30
2022-12-03T17:50:39.251Z,15.40
2022-12-03T17:51:39.201Z,16.50
2022-12-03T17:52:39.153Z,15.80
2022-12-03T17:53:39.102Z,15.70
2022-12-03T17:55:08.551Z,16.00
2022-12-03T17:55:44.721Z,16.00
2022-12-03T17:56:38.971Z,15.80
2022-12-03T17:57:38.906Z,16.20
2022-12-03T17:58:38.861Z,16.30
2022-12-03T17:59:38.806Z,16.50
2022-12-03T18:00:38.760Z,15.60
2022-12-03T18:01:38.796Z,16.60
2022-12-03T18:02:38.681Z,15.90
2022-12-03T18:03:38.741Z,16.80
2022-12-03T18:04:38.571Z,16.70
2022-12-03T18:05:38.521Z,16.60
2022-12-03T18:06:38.798Z,17.40
2022-12-03T18:07:38.481Z,17.80
2022-12-03T18:08:38.375Z,17.30
2022-12-03T18:09:38.319Z,16.80
2022-12-03T18:10:38.271Z,17.00
2022-12-03T18:11:38.226Z,16.40
2022-12-03T18:12:38.173Z,17.20
2022-12-03T18:13:38.131Z,16.30
2022-12-03T18:14:38.078Z,17.00
2022-12-03T18:15:38.030Z,15.90
2022-12-03T18:16:38.044Z,16.30
2022-12-03T18:17:37.934Z,17.20
2022-12-03T18:18:37.909Z,17.50
2022-12-03T18:19:37.838Z,17.80
2022-12-03T18:20:37.794Z,17.10
2022-12-03T18:22:37.690Z,17.00
2022-12-03T18:23:37.637Z,16.70
2022-12-03T18:24:37.588Z,17.10
2022-12-03T18:25:37.541Z,17.10
2022-12-03T18:26:37.497Z,16.40
2022-12-03T18:27:37.444Z,16.80
2022-12-03T18:28:37.395Z,17.70
2022-12-03T18:29:37.346Z,15.80
2022-12-03T18:30:37.300Z,16.30
2022-12-03T18:31:37.341Z,16.70
2022-12-03T18:32:37.197Z,16.40
2022-12-03T18:33:37.208Z,16.10
2022-12-03T18:34:37.135Z,16.20
2022-12-03T18:35:37.051Z,16.80
2022-12-03T18:36:37.009Z,16.60
2022-12-03T18:37:36.954Z,17.80
2022-12-03T18:38:36.904Z,17.40
2022-12-03T18:39:36.858Z,17.50
2022-12-03T18:40:36.807Z,17.30
2022-12-03T18:41:36.766Z,18.10
2022-12-03T18:42:36.725Z,16.80
2022-12-03T18:43:36.664Z,16.40
2022-12-03T18:44:36.613Z,16.90
2022-12-03T18:45:36.570Z,17.00
2022-12-03T18:46:52.901Z,17.00
2022-12-03T18:47:36.531Z,17.40
2022-12-03T18:48:36.426Z,17.30
2022-12-03T18:49:36.374Z,16.90
2022-12-03T18:50:36.343Z,16.60
2022-12-03T18:51:36.272Z,16.70
2022-12-03T18:52:36.224Z,17.30
2022-12-03T18:53:36.190Z,16.80
2022-12-03T18:54:36.126Z,16.40
2022-12-03T18:55:36.079Z,16.40
2022-12-03T18:56:36.026Z,16.40
2022-12-03T18:57:35.982Z,16.40
2022-12-03T18:58:35.928Z,16.80
2022-12-03T18:59:35.894Z,17.10
2022-12-03T19:00:35.925Z,16.10
2022-12-03T19:01:36.009Z,16.50
2022-12-03T19:03:01.812Z,16.70
2022-12-03T19:03:35.787Z,16.20
2022-12-03T19:04:35.639Z,16.50
2022-12-03T19:05:35.596Z,17.60
2022-12-03T19:06:35.559Z,17.10
2022-12-03T19:07:35.581Z,16.50
2022-12-03T19:08:35.442Z,17.20
2022-12-03T19:09:35.394Z,16.60
2022-12-03T19:10:35.352Z,17.10
2022-12-03T19:11:35.294Z,17.20
2022-12-03T19:12:35.250Z,17.70
2022-12-03T19:13:35.200Z,17.50
2022-12-03T19:15:35.107Z,16.90
2022-12-03T19:16:35.142Z,17.30
2022-12-03T19:17:35.003Z,16.80
2022-12-03T19:18:34.952Z,16.80
2022-12-03T19:19:34.904Z,17.10
2022-12-03T19:20:34.883Z,16.80
2022-12-03T19:21:34.805Z,16.80
2022-12-03T19:22:34.783Z,16.40
2022-12-03T19:23:34.704Z,16.80
2022-12-03T19:24:34.658Z,17.60
2022-12-03T19:25:34.610Z,17.70
2022-12-03T19:26:34.774Z,16.90
2022-12-03T19:27:34.508Z,17.50
2022-12-03T19:28:34.460Z,17.80
2022-12-03T19:29:34.417Z,16.90
2022-12-03T19:30:34.363Z,16.60
2022-12-03T19:31:34.409Z,17.10
2022-12-03T19:32:34.267Z,16.80
2022-12-03T19:33:34.214Z,18.00
2022-12-03T19:34:34.183Z,17.80
2022-12-03T19:35:34.130Z,17.10
2022-12-03T19:36:34.087Z,16.90
2022-12-03T19:37:34.098Z,17.20
2022-12-03T19:38:34.023Z,17.00
2022-12-03T19:39:33.922Z,17.20
2022-12-03T19:40:33.879Z,17.70
2022-12-03T19:41:33.824Z,17.40
2022-12-03T19:42:33.782Z,18.50
2022-12-03T19:43:33.728Z,17.00
2022-12-03T19:44:34.031Z,17.40
2022-12-03T19:45:33.732Z,17.80
2022-12-03T19:46:33.587Z,18.80
2022-12-03T19:47:33.526Z,17.70
2022-12-03T19:48:33.481Z,18.00
2022-12-03T19:49:33.427Z,18.20
2022-12-03T19:50:33.389Z,17.70
2022-12-03T19:51:35.067Z,17.70
2022-12-03T19:52:33.339Z,18.10
2022-12-03T19:53:33.241Z,17.30
2022-12-03T19:54:33.206Z,18.60
2022-12-03T19:55:33.152Z,17.90
2022-12-03T19:56:33.088Z,17.30
2022-12-03T19:57:33.037Z,17.50
2022-12-03T19:58:32.993Z,18.10
2022-12-03T19:59:32.938Z,18.20
2022-12-03T20:00:32.892Z,18.00
2022-12-03T20:01:32.920Z,17.50
2022-12-03T20:02:32.818Z,18.30
2022-12-03T20:03:32.744Z,18.30
2022-12-03T20:04:32.695Z,18.00
2022-12-03T20:05:33.445Z,17.70
2022-12-03T20:06:32.617Z,17.00
2022-12-03T20:07:32.620Z,17.70
2022-12-03T20:08:32.499Z,18.30
2022-12-03T20:09:32.446Z,17.90
2022-12-03T20:10:32.449Z,17.30
2022-12-03T20:11:32.345Z,17.80
2022-12-03T20:12:32.307Z,17.70
2022-12-03T20:13:36.394Z,17.00
2022-12-03T20:14:32.201Z,18.20
2022-12-03T20:15:32.152Z,17.60
2022-12-03T20:16:32.220Z,18.10
2022-12-03T20:17:32.065Z,18.40
2022-12-03T20:18:32.004Z,18.40
2022-12-03T20:19:31.953Z,17.40
2022-12-03T20:20:31.906Z,18.80
2022-12-03T20:21:31.853Z,19.00
2022-12-03T20:22:31.805Z,18.40
2022-12-03T20:23:31.755Z,18.80
2022-12-03T20:24:31.711Z,18.30
2022-12-03T20:25:31.664Z,18.90
2022-12-03T20:26:31.628Z,18.70
2022-12-03T20:27:31.556Z,19.00
2022-12-03T20:28:31.509Z,18.30
2022-12-03T20:29:31.461Z,19.20
2022-12-03T20:30:31.412Z,19.20
2022-12-03T20:31:31.461Z,17.50
2022-12-03T20:32:31.312Z,17.40
2022-12-03T20:33:31.270Z,19.20
2022-12-03T20:34:31.216Z,18.40
2022-12-03T20:35:31.167Z,18.30
2022-12-03T20:36:31.122Z,17.70
2022-12-03T20:37:31.068Z,18.90
2022-12-03T20:38:31.017Z,18.50
2022-12-03T20:39:30.969Z,18.80
2022-12-03T20:40:30.919Z,17.90
2022-12-03T20:41:30.874Z,18.30
2022-12-03T20:42:30.840Z,18.10
2022-12-03T20:43:30.772Z,18.00
2022-12-03T20:44:30.723Z,18.60
2022-12-03T20:45:30.769Z,17.90
2022-12-03T20:46:30.660Z,16.80
2022-12-03T20:47:30.576Z,17.60
2022-12-03T20:48:30.528Z,17.90
2022-12-03T20:49:30.681Z,18.50
2022-12-03T20:50:30.427Z,16.80
2022-12-03T20:51:30.378Z,17.80
2022-12-03T20:52:30.332Z,17.70
2022-12-03T20:53:30.283Z,16.80
2022-12-03T20:54:30.230Z,17.60
2022-12-03T20:55:30.183Z,17.80
2022-12-03T20:56:30.129Z,17.60
2022-12-03T20:57:30.082Z,17.90
2022-12-03T20:58:30.051Z,18.60
2022-12-03T20:59:29.989Z,18.20
2022-12-03T21:00:29.940Z,17.90
2022-12-03T21:01:29.949Z,18.90
2022-12-03T21:02:29.923Z,18.20
2022-12-03T21:03:29.786Z,18.70
2022-12-03T21:04:29.736Z,17.90
2022-12-03T21:05:29.689Z,18.50
2022-12-03T21:06:29.639Z,18.20
2022-12-03T21:07:29.645Z,17.30
2022-12-03T21:08:41.182Z,17.70
2022-12-03T21:09:29.493Z,17.80
2022-12-03T21:10:29.442Z,18.40
2022-12-03T21:11:29.395Z,18.40
2022-12-03T21:12:29.342Z,18.20
2022-12-03T21:13:32.267Z,19.00
2022-12-03T21:14:29.263Z,19.20
2022-12-03T21:15:29.198Z,18.20
2022-12-03T21:16:59.026Z,18.80
2022-12-03T21:17:29.237Z,18.00
2022-12-03T21:18:29.054Z,19.10
2022-12-03T21:19:28.999Z,18.40
2022-12-03T21:20:28.947Z,17.60
2022-12-03T21:21:28.900Z,19.40
2022-12-03T21:22:28.854Z,19.70
2022-12-03T21:23:28.802Z,19.70
2022-12-03T21:24:28.750Z,18.70
2022-12-03T21:25:28.705Z,19.10
2022-12-03T21:26:28.651Z,18.60
2022-12-03T21:27:28.606Z,17.70
2022-12-03T21:28:28.551Z,18.70
2022-12-03T21:29:28.507Z,20.20
2022-12-03T21:30:28.493Z,19.30
2022-12-03T21:31:28.476Z,19.30
2022-12-03T21:32:28.356Z,19.30
2022-12-03T21:33:28.317Z,19.30
2022-12-03T21:34:35.552Z,18.90
2022-12-03T21:35:28.222Z,18.60
2022-12-03T21:36:28.161Z,18.80
2022-12-03T21:37:28.121Z,19.80
2022-12-03T21:38:28.116Z,19.40
2022-12-03T21:39:28.013Z,20.30
2022-12-03T21:40:27.965Z,20.00
2022-12-03T21:41:27.915Z,19.60
2022-12-03T21:42:36.895Z,19.20
2022-12-03T21:43:27.827Z,19.90
2022-12-03T21:44:27.774Z,18.90
2022-12-03T21:45:27.719Z,19.60
2022-12-03T21:47:12.343Z,20.30
2022-12-03T21:47:32.151Z,20.10
2022-12-03T21:48:27.576Z,19.10
2022-12-03T21:49:28.136Z,19.80
2022-12-03T21:50:27.477Z,20.90
2022-12-03T21:51:27.425Z,19.80
2022-12-03T21:52:27.372Z,19.90
2022-12-03T21:53:27.339Z,21.20
2022-12-03T21:54:27.270Z,20.30
2022-12-03T21:55:27.226Z,20.10
2022-12-03T21:56:27.171Z,20.30
2022-12-03T21:57:27.125Z,20.10
2022-12-03T21:58:27.082Z,19.50
2022-12-03T21:59:27.028Z,20.20
2022-12-03T22:00:26.977Z,20.60
2022-12-03T22:01:27.010Z,20.90
2022-12-03T22:02:26.988Z,19.40
2022-12-03T22:03:26.827Z,19.40
2022-12-03T22:04:26.789Z,20.40
2022-12-03T22:05:26.732Z,19.90
2022-12-03T22:06:26.681Z,20.80
2022-12-03T22:07:26.693Z,20.20
2022-12-03T22:08:26.584Z,19.70
2022-12-03T22:09:27.082Z,20.20
2022-12-03T22:10:26.482Z,20.50
2022-12-03T22:11:26.436Z,20.80
2022-12-03T22:12:26.383Z,20.10
2022-12-03T22:13:26.337Z,19.40
2022-12-03T22:14:26.282Z,20.90
2022-12-03T22:15:26.234Z,20.40
2022-12-03T22:16:26.273Z,20.10
2022-12-03T22:17:26.142Z,22.30
2022-12-03T22:18:26.125Z,21.00
2022-12-03T22:19:26.061Z,19.70
2022-12-03T22:20:25.995Z,20.10
2022-12-03T22:21:25.939Z,21.00
2022-12-03T22:22:25.890Z,20.30
2022-12-03T22:23:25.842Z,20.40
2022-12-03T22:24:25.793Z,20.60
2022-12-03T22:25:25.749Z,20.90
2022-12-03T22:26:25.692Z,20.90
2022-12-03T22:27:25.644Z,20.70
2022-12-03T22:28:25.603Z,20.50
2022-12-03T22:29:25.547Z,19.90
2022-12-03T22:30:25.496Z,20.60
2022-12-03T22:31:25.468Z,20.70
2022-12-03T22:32:25.396Z,21.00
2022-12-03T22:33:25.348Z,20.70
2022-12-03T22:34:25.315Z,21.70
2022-12-03T22:35:25.268Z,21.00
2022-12-03T22:36:25.197Z,20.30
2022-12-03T22:37:25.156Z,20.30
2022-12-03T22:38:25.103Z,21.10
2022-12-03T22:39:25.051Z,20.80
2022-12-03T22:40:24.999Z,20.00
2022-12-03T22:41:24.955Z,20.00
2022-12-03T22:42:24.903Z,21.00
2022-12-03T22:43:24.853Z,20.60
2022-12-03T22:44:24.802Z,19.70
2022-12-03T22:45:24.756Z,20.20
2022-12-03T22:46:24.802Z,20.40
2022-12-03T22:47:24.658Z,20.10
2022-12-03T22:48:24.613Z,20.80
2022-12-03T22:49:24.559Z,20.30
2022-12-03T22:50:24.528Z,20.90
2022-12-03T22:51:24.473Z,19.50
2022-12-03T22:52:24.407Z,20.70
2022-12-03T22:53:24.364Z,20.00
2022-12-03T22:54:24.493Z,20.10
2022-12-03T22:55:24.265Z,19.80
2022-12-03T22:56:24.213Z,19.00
2022-12-03T22:57:24.161Z,19.00
2022-12-03T22:58:24.112Z,20.50
2022-12-03T22:59:24.062Z,20.80
2022-12-03T23:00:24.012Z,20.30
2022-12-03T23:01:23.988Z,20.30
2022-12-03T23:02:23.948Z,19.50
2022-12-03T23:03:23.905Z,19.60
2022-12-03T23:04:23.813Z,19.60
2022-12-03T23:05:23.770Z,19.30
2022-12-03T23:06:23.735Z,20.20
2022-12-03T23:07:23.669Z,20.50
2022-12-03T23:08:23.618Z,19.70
2022-12-03T23:09:23.569Z,20.40
2022-12-03T23:10:23.520Z,19.50
2022-12-03T23:11:23.468Z,19.40
2022-12-03T23:12:23.424Z,19.70
2022-12-03T23:13:23.371Z,20.40
2022-12-03T23:14:23.321Z,20.00
2022-12-03T23:15:23.272Z,20.30
2022-12-03T23:16:23.294Z,20.30
2022-12-03T23:17:23.172Z,19.80
2022-12-03T23:18:23.123Z,19.30
2022-12-03T23:19:23.073Z,19.30
2022-12-03T23:20:23.022Z,19.40
2022-12-03T23:21:28.580Z,19.90
2022-12-03T23:22:22.950Z,19.90
2022-12-03T23:23:22.875Z,19.50
2022-12-03T23:24:22.822Z,20.00
2022-12-03T23:25:22.777Z,19.60
2022-12-03T23:26:22.726Z,20.10
2022-12-03T23:27:22.680Z,20.50
2022-12-03T23:28:22.627Z,20.00
2022-12-03T23:29:22.578Z,19.00
2022-12-03T23:30:22.538Z,20.20
2022-12-03T23:31:22.530Z,19.80
2022-12-03T23:32:22.427Z,19.30
2022-12-03T23:33:22.385Z,19.80
2022-12-03T23:34:22.494Z,19.00
2022-12-03T23:35:22.280Z,19.30
2022-12-03T23:36:22.230Z,19.50
2022-12-03T23:37:22.184Z,18.80
2022-12-03T23:38:22.152Z,20.00
2022-12-03T23:39:22.081Z,18.90
2022-12-03T23:40:22.033Z,19.50
2022-12-03T23:41:21.983Z,21.40
2022-12-03T23:42:21.935Z,19.80
2022-12-03T23:43:21.886Z,19.70
2022-12-03T23:44:21.830Z,19.00
2022-12-03T23:45:21.786Z,19.50
2022-12-03T23:46:21.804Z,19.50
2022-12-03T23:47:21.685Z,19.20
2022-12-03T23:48:21.634Z,19.80
2022-12-03T23:49:21.588Z,19.90
2022-12-03T23:50:21.535Z,20.00
2022-12-03T23:51:21.486Z,20.10
2022-12-03T23:52:21.435Z,20.00
2022-12-03T23:53:21.389Z,19.30
2022-12-03T23:54:21.357Z,19.80
2022-12-03T23:55:21.289Z,20.00
2022-12-03T23:56:21.238Z,19.60
2022-12-03T23:57:21.189Z,20.20
2022-12-03T23:58:21.144Z,18.90
2022-12-03T23:59:21.089Z,20.30
